sensor_id;sensor_type;location;lat;lon;timestamp;temperature;humidity
14192;DHT22;7177;48.572;7.838;2023-06-14T00:00:17;16.70;92.50
14192;DHT22;7177;48.572;7.838;2023-06-14T00:02:43;16.70;92.70
14192;DHT22;7177;48.572;7.838;2023-06-14T00:05:08;16.70;93.70
14192;DHT22;7177;48.572;7.838;2023-06-14T00:07:36;16.60;93.80
14192;DHT22;7177;48.572;7.838;2023-06-14T00:10:03;16.40;95.10
14192;DHT22;7177;48.572;7.838;2023-06-14T00:12:29;16.20;95.90
14192;DHT22;7177;48.572;7.838;2023-06-14T00:14:55;16.10;96.90
14192;DHT22;7177;48.572;7.838;2023-06-14T00:17:20;16.10;96.90
14192;DHT22;7177;48.572;7.838;2023-06-14T00:19:46;16.20;97.10
14192;DHT22;7177;48.572;7.838;2023-06-14T00:22:12;16.10;98.10
14192;DHT22;7177;48.572;7.838;2023-06-14T00:24:38;16.10;98.70
14192;DHT22;7177;48.572;7.838;2023-06-14T00:27:03;15.90;98.90
14192;DHT22;7177;48.572;7.838;2023-06-14T00:29:29;15.90;99.30
14192;DHT22;7177;48.572;7.838;2023-06-14T00:31:54;15.80;99.80
14192;DHT22;7177;48.572;7.838;2023-06-14T00:34:20;15.90;99.40
14192;DHT22;7177;48.572;7.838;2023-06-14T00:36:45;16.10;99.50
14192;DHT22;7177;48.572;7.838;2023-06-14T00:39:11;16.10;99.40
14192;DHT22;7177;48.572;7.838;2023-06-14T00:41:37;15.90;99.90
14192;DHT22;7177;48.572;7.838;2023-06-14T00:44:03;16.00;99.90
14192;DHT22;7177;48.572;7.838;2023-06-14T00:46:28;16.00;99.90
14192;DHT22;7177;48.572;7.838;2023-06-14T00:48:55;16.10;99.60
14192;DHT22;7177;48.572;7.838;2023-06-14T00:51:21;16.00;99.90
14192;DHT22;7177;48.572;7.838;2023-06-14T00:53:47;15.90;99.90
14192;DHT22;7177;48.572;7.838;2023-06-14T00:56:14;15.90;99.90
14192;DHT22;7177;48.572;7.838;2023-06-14T00:58:40;15.80;99.90
14192;DHT22;7177;48.572;7.838;2023-06-14T01:01:05;15.60;99.90
14192;DHT22;7177;48.572;7.838;2023-06-14T01:03:31;15.30;99.90
14192;DHT22;7177;48.572;7.838;2023-06-14T01:06:29;15.10;99.90
14192;DHT22;7177;48.572;7.838;2023-06-14T01:11:41;15.10;99.90
14192;DHT22;7177;48.572;7.838;2023-06-14T01:14:12;15.20;99.90
14192;DHT22;7177;48.572;7.838;2023-06-14T01:16:39;15.00;99.90
14192;DHT22;7177;48.572;7.838;2023-06-14T01:19:09;15.00;99.90
14192;DHT22;7177;48.572;7.838;2023-06-14T01:21:39;15.00;99.90
14192;DHT22;7177;48.572;7.838;2023-06-14T01:24:08;15.00;99.90
14192;DHT22;7177;48.572;7.838;2023-06-14T01:26:34;15.10;99.90
14192;DHT22;7177;48.572;7.838;2023-06-14T01:29:00;15.10;99.90
14192;DHT22;7177;48.572;7.838;2023-06-14T01:31:26;15.10;99.90
14192;DHT22;7177;48.572;7.838;2023-06-14T01:33:52;15.00;99.90
14192;DHT22;7177;48.572;7.838;2023-06-14T01:36:22;15.00;99.90
14192;DHT22;7177;48.572;7.838;2023-06-14T01:38:50;14.90;99.90
14192;DHT22;7177;48.572;7.838;2023-06-14T01:41:18;14.90;99.90
14192;DHT22;7177;48.572;7.838;2023-06-14T01:43:47;14.90;99.90
14192;DHT22;7177;48.572;7.838;2023-06-14T01:46:14;14.70;99.90
14192;DHT22;7177;48.572;7.838;2023-06-14T01:48:40;14.70;99.90
14192;DHT22;7177;48.572;7.838;2023-06-14T01:51:06;14.80;99.90
14192;DHT22;7177;48.572;7.838;2023-06-14T01:53:31;14.80;99.90
14192;DHT22;7177;48.572;7.838;2023-06-14T01:55:57;14.80;99.90
14192;DHT22;7177;48.572;7.838;2023-06-14T01:58:22;14.90;99.90
14192;DHT22;7177;48.572;7.838;2023-06-14T02:00:49;14.90;99.90
14192;DHT22;7177;48.572;7.838;2023-06-14T02:03:14;15.00;99.90
14192;DHT22;7177;48.572;7.838;2023-06-14T02:05:40;15.00;99.90
14192;DHT22;7177;48.572;7.838;2023-06-14T02:08:06;14.90;99.90
14192;DHT22;7177;48.572;7.838;2023-06-14T02:10:32;14.90;99.90
14192;DHT22;7177;48.572;7.838;2023-06-14T02:12:58;14.80;99.90
14192;DHT22;7177;48.572;7.838;2023-06-14T02:15:23;14.80;99.90
14192;DHT22;7177;48.572;7.838;2023-06-14T02:17:49;14.70;99.90
14192;DHT22;7177;48.572;7.838;2023-06-14T02:20:15;14.60;99.90
14192;DHT22;7177;48.572;7.838;2023-06-14T02:22:40;14.50;99.90
14192;DHT22;7177;48.572;7.838;2023-06-14T02:25:07;14.60;99.90
14192;DHT22;7177;48.572;7.838;2023-06-14T02:27:33;14.70;99.90
14192;DHT22;7177;48.572;7.838;2023-06-14T02:29:59;14.70;99.90
14192;DHT22;7177;48.572;7.838;2023-06-14T02:32:25;14.60;99.90
14192;DHT22;7177;48.572;7.838;2023-06-14T02:34:52;14.50;99.90
14192;DHT22;7177;48.572;7.838;2023-06-14T02:37:19;14.30;99.90
14192;DHT22;7177;48.572;7.838;2023-06-14T02:39:44;14.20;99.90
14192;DHT22;7177;48.572;7.838;2023-06-14T02:42:10;14.20;99.90
14192;DHT22;7177;48.572;7.838;2023-06-14T02:44:36;14.20;99.90
14192;DHT22;7177;48.572;7.838;2023-06-14T02:47:02;14.10;99.90
14192;DHT22;7177;48.572;7.838;2023-06-14T02:49:28;14.10;99.90
14192;DHT22;7177;48.572;7.838;2023-06-14T02:51:54;14.10;99.90
14192;DHT22;7177;48.572;7.838;2023-06-14T02:54:20;14.00;99.90
14192;DHT22;7177;48.572;7.838;2023-06-14T02:56:45;13.80;99.90
14192;DHT22;7177;48.572;7.838;2023-06-14T02:59:11;13.70;99.90
14192;DHT22;7177;48.572;7.838;2023-06-14T03:01:39;13.80;99.90
14192;DHT22;7177;48.572;7.838;2023-06-14T03:04:07;13.80;99.90
14192;DHT22;7177;48.572;7.838;2023-06-14T03:06:32;13.90;99.90
14192;DHT22;7177;48.572;7.838;2023-06-14T03:08:59;13.90;99.90
14192;DHT22;7177;48.572;7.838;2023-06-14T03:11:26;13.90;99.90
14192;DHT22;7177;48.572;7.838;2023-06-14T03:13:52;13.90;99.90
14192;DHT22;7177;48.572;7.838;2023-06-14T03:16:19;13.90;99.90
14192;DHT22;7177;48.572;7.838;2023-06-14T03:18:48;14.00;99.90
14192;DHT22;7177;48.572;7.838;2023-06-14T03:21:14;14.00;99.90
14192;DHT22;7177;48.572;7.838;2023-06-14T03:23:41;14.00;99.90
14192;DHT22;7177;48.572;7.838;2023-06-14T03:26:07;13.90;99.90
14192;DHT22;7177;48.572;7.838;2023-06-14T03:28:33;13.90;99.90
14192;DHT22;7177;48.572;7.838;2023-06-14T03:30:59;13.90;99.90
14192;DHT22;7177;48.572;7.838;2023-06-14T03:33:25;13.70;99.90
14192;DHT22;7177;48.572;7.838;2023-06-14T03:35:51;13.70;99.90
14192;DHT22;7177;48.572;7.838;2023-06-14T03:38:17;13.70;99.90
14192;DHT22;7177;48.572;7.838;2023-06-14T03:40:42;13.60;99.90
14192;DHT22;7177;48.572;7.838;2023-06-14T03:43:08;13.50;99.90
14192;DHT22;7177;48.572;7.838;2023-06-14T03:45:33;13.50;99.90
14192;DHT22;7177;48.572;7.838;2023-06-14T03:47:59;13.60;99.90
14192;DHT22;7177;48.572;7.838;2023-06-14T03:50:26;13.70;99.90
14192;DHT22;7177;48.572;7.838;2023-06-14T03:52:52;13.70;99.90
14192;DHT22;7177;48.572;7.838;2023-06-14T03:55:18;13.80;99.90
14192;DHT22;7177;48.572;7.838;2023-06-14T03:57:43;13.80;99.90
14192;DHT22;7177;48.572;7.838;2023-06-14T04:00:09;13.70;99.90
14192;DHT22;7177;48.572;7.838;2023-06-14T04:02:36;13.80;99.90
14192;DHT22;7177;48.572;7.838;2023-06-14T04:05:02;13.90;99.90
14192;DHT22;7177;48.572;7.838;2023-06-14T04:07:28;14.20;99.90
14192;DHT22;7177;48.572;7.838;2023-06-14T04:09:54;14.50;99.90
14192;DHT22;7177;48.572;7.838;2023-06-14T04:12:19;14.70;99.90
14192;DHT22;7177;48.572;7.838;2023-06-14T04:14:45;15.00;99.90
14192;DHT22;7177;48.572;7.838;2023-06-14T04:17:11;15.10;99.90
14192;DHT22;7177;48.572;7.838;2023-06-14T04:19:37;15.20;99.90
14192;DHT22;7177;48.572;7.838;2023-06-14T04:22:03;15.30;99.90
14192;DHT22;7177;48.572;7.838;2023-06-14T04:24:28;15.40;99.90
14192;DHT22;7177;48.572;7.838;2023-06-14T04:26:58;15.50;99.90
14192;DHT22;7177;48.572;7.838;2023-06-14T04:29:24;15.60;99.90
14192;DHT22;7177;48.572;7.838;2023-06-14T04:31:53;15.90;99.90
14192;DHT22;7177;48.572;7.838;2023-06-14T04:34:20;16.20;99.90
14192;DHT22;7177;48.572;7.838;2023-06-14T04:36:47;16.30;99.90
14192;DHT22;7177;48.572;7.838;2023-06-14T04:39:19;16.30;99.90
14192;DHT22;7177;48.572;7.838;2023-06-14T04:41:44;16.30;99.90
14192;DHT22;7177;48.572;7.838;2023-06-14T04:44:10;16.40;99.90
14192;DHT22;7177;48.572;7.838;2023-06-14T04:46:38;16.50;99.90
14192;DHT22;7177;48.572;7.838;2023-06-14T04:49:17;16.60;99.90
14192;DHT22;7177;48.572;7.838;2023-06-14T04:51:46;16.80;99.90
14192;DHT22;7177;48.572;7.838;2023-06-14T04:54:16;17.00;99.90
14192;DHT22;7177;48.572;7.838;2023-06-14T04:56:42;17.20;99.90
14192;DHT22;7177;48.572;7.838;2023-06-14T04:59:08;17.30;99.90
14192;DHT22;7177;48.572;7.838;2023-06-14T05:01:35;17.40;99.90
14192;DHT22;7177;48.572;7.838;2023-06-14T05:04:02;17.40;99.90
14192;DHT22;7177;48.572;7.838;2023-06-14T05:06:29;17.30;99.90
14192;DHT22;7177;48.572;7.838;2023-06-14T05:08:55;17.30;99.90
14192;DHT22;7177;48.572;7.838;2023-06-14T05:11:21;17.40;99.90
14192;DHT22;7177;48.572;7.838;2023-06-14T05:13:49;17.40;99.90
14192;DHT22;7177;48.572;7.838;2023-06-14T05:16:15;17.50;99.90
14192;DHT22;7177;48.572;7.838;2023-06-14T05:18:42;17.50;99.90
14192;DHT22;7177;48.572;7.838;2023-06-14T05:21:07;17.50;99.90
14192;DHT22;7177;48.572;7.838;2023-06-14T05:23:34;17.60;99.90
14192;DHT22;7177;48.572;7.838;2023-06-14T05:25:59;17.60;99.90
14192;DHT22;7177;48.572;7.838;2023-06-14T05:28:25;17.80;99.90
14192;DHT22;7177;48.572;7.838;2023-06-14T05:30:51;17.90;99.90
14192;DHT22;7177;48.572;7.838;2023-06-14T05:33:16;18.00;99.90
14192;DHT22;7177;48.572;7.838;2023-06-14T05:35:42;18.10;99.90
14192;DHT22;7177;48.572;7.838;2023-06-14T05:38:08;18.20;99.90
14192;DHT22;7177;48.572;7.838;2023-06-14T05:40:33;18.30;99.90
14192;DHT22;7177;48.572;7.838;2023-06-14T05:42:59;18.50;99.90
14192;DHT22;7177;48.572;7.838;2023-06-14T05:45:24;18.70;99.90
14192;DHT22;7177;48.572;7.838;2023-06-14T05:47:51;18.90;99.90
14192;DHT22;7177;48.572;7.838;2023-06-14T05:50:17;19.00;99.90
14192;DHT22;7177;48.572;7.838;2023-06-14T05:52:43;19.10;99.90
14192;DHT22;7177;48.572;7.838;2023-06-14T05:55:08;19.20;99.90
14192;DHT22;7177;48.572;7.838;2023-06-14T05:57:34;19.30;99.90
14192;DHT22;7177;48.572;7.838;2023-06-14T05:59:59;19.50;99.90
14192;DHT22;7177;48.572;7.838;2023-06-14T06:02:25;19.70;99.90
14192;DHT22;7177;48.572;7.838;2023-06-14T06:04:50;19.70;99.90
14192;DHT22;7177;48.572;7.838;2023-06-14T06:07:16;19.80;99.90
14192;DHT22;7177;48.572;7.838;2023-06-14T06:09:42;19.80;99.90
14192;DHT22;7177;48.572;7.838;2023-06-14T06:12:07;19.90;99.90
14192;DHT22;7177;48.572;7.838;2023-06-14T06:14:33;20.00;99.90
14192;DHT22;7177;48.572;7.838;2023-06-14T06:16:58;20.10;99.90
14192;DHT22;7177;48.572;7.838;2023-06-14T06:19:24;20.10;99.90
14192;DHT22;7177;48.572;7.838;2023-06-14T06:21:50;20.20;99.90
14192;DHT22;7177;48.572;7.838;2023-06-14T06:24:16;20.30;99.90
14192;DHT22;7177;48.572;7.838;2023-06-14T06:26:42;20.40;99.90
14192;DHT22;7177;48.572;7.838;2023-06-14T06:29:07;20.60;99.90
14192;DHT22;7177;48.572;7.838;2023-06-14T06:31:33;20.90;99.90
14192;DHT22;7177;48.572;7.838;2023-06-14T06:33:58;21.00;99.90
14192;DHT22;7177;48.572;7.838;2023-06-14T06:36:24;21.10;99.90
14192;DHT22;7177;48.572;7.838;2023-06-14T06:38:50;21.30;99.90
14192;DHT22;7177;48.572;7.838;2023-06-14T06:41:16;21.40;99.90
14192;DHT22;7177;48.572;7.838;2023-06-14T06:43:41;21.50;99.90
14192;DHT22;7177;48.572;7.838;2023-06-14T06:46:07;21.50;99.90
14192;DHT22;7177;48.572;7.838;2023-06-14T06:48:32;21.60;99.90
14192;DHT22;7177;48.572;7.838;2023-06-14T06:50:58;21.50;99.90
14192;DHT22;7177;48.572;7.838;2023-06-14T06:53:24;21.50;99.90
14192;DHT22;7177;48.572;7.838;2023-06-14T06:55:49;21.50;99.90
14192;DHT22;7177;48.572;7.838;2023-06-14T06:58:15;21.60;99.30
14192;DHT22;7177;48.572;7.838;2023-06-14T07:00:40;21.80;98.90
14192;DHT22;7177;48.572;7.838;2023-06-14T07:03:06;21.90;99.20
14192;DHT22;7177;48.572;7.838;2023-06-14T07:05:32;22.10;98.90
14192;DHT22;7177;48.572;7.838;2023-06-14T07:07:57;22.30;98.50
14192;DHT22;7177;48.572;7.838;2023-06-14T07:10:23;22.60;97.30
14192;DHT22;7177;48.572;7.838;2023-06-14T07:12:50;22.80;97.80
14192;DHT22;7177;48.572;7.838;2023-06-14T07:15:15;23.00;97.30
14192;DHT22;7177;48.572;7.838;2023-06-14T07:17:41;23.20;96.50
14192;DHT22;7177;48.572;7.838;2023-06-14T07:20:08;23.30;96.40
14192;DHT22;7177;48.572;7.838;2023-06-14T07:22:37;23.50;95.50
14192;DHT22;7177;48.572;7.838;2023-06-14T07:25:03;23.70;94.70
14192;DHT22;7177;48.572;7.838;2023-06-14T07:27:28;23.90;93.50
14192;DHT22;7177;48.572;7.838;2023-06-14T07:29:54;24.10;92.30
14192;DHT22;7177;48.572;7.838;2023-06-14T07:32:20;24.10;92.70
14192;DHT22;7177;48.572;7.838;2023-06-14T07:34:45;24.20;92.50
14192;DHT22;7177;48.572;7.838;2023-06-14T07:37:11;24.30;91.90
14192;DHT22;7177;48.572;7.838;2023-06-14T07:39:36;24.40;91.40
14192;DHT22;7177;48.572;7.838;2023-06-14T07:42:02;24.40;92.30
14192;DHT22;7177;48.572;7.838;2023-06-14T07:44:29;24.50;92.00
14192;DHT22;7177;48.572;7.838;2023-06-14T07:46:56;24.70;89.10
14192;DHT22;7177;48.572;7.838;2023-06-14T07:49:25;24.90;89.90
14192;DHT22;7177;48.572;7.838;2023-06-14T07:51:51;25.00;90.40
14192;DHT22;7177;48.572;7.838;2023-06-14T07:54:16;25.00;90.20
14192;DHT22;7177;48.572;7.838;2023-06-14T07:56:42;25.10;91.10
14192;DHT22;7177;48.572;7.838;2023-06-14T07:59:08;25.30;89.60
14192;DHT22;7177;48.572;7.838;2023-06-14T08:01:34;25.60;90.30
14192;DHT22;7177;48.572;7.838;2023-06-14T08:04:00;25.90;88.50
14192;DHT22;7177;48.572;7.838;2023-06-14T08:06:25;26.00;88.60
14192;DHT22;7177;48.572;7.838;2023-06-14T08:08:51;26.10;86.80
14192;DHT22;7177;48.572;7.838;2023-06-14T08:11:16;26.30;85.10
14192;DHT22;7177;48.572;7.838;2023-06-14T08:13:42;26.60;81.80
14192;DHT22;7177;48.572;7.838;2023-06-14T08:16:07;26.60;81.50
14192;DHT22;7177;48.572;7.838;2023-06-14T08:18:33;26.50;81.70
14192;DHT22;7177;48.572;7.838;2023-06-14T08:20:59;26.50;81.50
14192;DHT22;7177;48.572;7.838;2023-06-14T08:23:24;26.70;80.50
14192;DHT22;7177;48.572;7.838;2023-06-14T08:25:50;26.80;81.90
14192;DHT22;7177;48.572;7.838;2023-06-14T08:28:15;26.80;79.20
14192;DHT22;7177;48.572;7.838;2023-06-14T08:30:42;26.90;77.00
14192;DHT22;7177;48.572;7.838;2023-06-14T08:33:08;27.10;76.40
14192;DHT22;7177;48.572;7.838;2023-06-14T08:35:33;26.70;78.50
14192;DHT22;7177;48.572;7.838;2023-06-14T08:38:02;26.70;76.90
14192;DHT22;7177;48.572;7.838;2023-06-14T08:40:30;26.90;76.00
14192;DHT22;7177;48.572;7.838;2023-06-14T08:42:55;27.30;75.80
14192;DHT22;7177;48.572;7.838;2023-06-14T08:45:22;27.50;77.50
14192;DHT22;7177;48.572;7.838;2023-06-14T08:47:48;27.60;76.60
14192;DHT22;7177;48.572;7.838;2023-06-14T08:50:27;27.70;74.40
14192;DHT22;7177;48.572;7.838;2023-06-14T08:52:57;27.80;74.20
14192;DHT22;7177;48.572;7.838;2023-06-14T08:55:26;27.80;74.80
14192;DHT22;7177;48.572;7.838;2023-06-14T08:57:57;27.80;75.30
14192;DHT22;7177;48.572;7.838;2023-06-14T09:00:24;28.30;74.20
14192;DHT22;7177;48.572;7.838;2023-06-14T09:02:50;28.30;74.40
14192;DHT22;7177;48.572;7.838;2023-06-14T09:05:24;28.40;74.60
14192;DHT22;7177;48.572;7.838;2023-06-14T09:07:50;28.60;72.40
14192;DHT22;7177;48.572;7.838;2023-06-14T09:10:16;28.90;71.20
14192;DHT22;7177;48.572;7.838;2023-06-14T09:12:42;29.00;69.90
14192;DHT22;7177;48.572;7.838;2023-06-14T09:15:52;29.00;71.10
14192;DHT22;7177;48.572;7.838;2023-06-14T09:18:17;28.90;69.70
14192;DHT22;7177;48.572;7.838;2023-06-14T09:20:43;28.50;68.90
14192;DHT22;7177;48.572;7.838;2023-06-14T09:23:09;28.30;70.90
14192;DHT22;7177;48.572;7.838;2023-06-14T09:25:45;28.20;73.50
14192;DHT22;7177;48.572;7.838;2023-06-14T09:28:11;28.30;74.40
14192;DHT22;7177;48.572;7.838;2023-06-14T09:30:39;28.30;70.90
14192;DHT22;7177;48.572;7.838;2023-06-14T09:33:05;28.40;71.70
14192;DHT22;7177;48.572;7.838;2023-06-14T09:35:31;28.70;71.40
14192;DHT22;7177;48.572;7.838;2023-06-14T09:37:57;28.90;71.40
14192;DHT22;7177;48.572;7.838;2023-06-14T09:40:23;29.00;70.90
14192;DHT22;7177;48.572;7.838;2023-06-14T09:42:49;29.10;71.00
14192;DHT22;7177;48.572;7.838;2023-06-14T09:45:15;29.20;71.70
14192;DHT22;7177;48.572;7.838;2023-06-14T09:47:45;29.30;69.50
14192;DHT22;7177;48.572;7.838;2023-06-14T09:50:11;29.50;70.40
14192;DHT22;7177;48.572;7.838;2023-06-14T09:52:36;29.20;67.00
14192;DHT22;7177;48.572;7.838;2023-06-14T09:55:08;29.60;66.90
14192;DHT22;7177;48.572;7.838;2023-06-14T09:57:37;29.70;66.30
14192;DHT22;7177;48.572;7.838;2023-06-14T10:00:06;29.60;64.60
14192;DHT22;7177;48.572;7.838;2023-06-14T10:02:36;29.40;66.30
14192;DHT22;7177;48.572;7.838;2023-06-14T10:05:09;29.20;67.00
14192;DHT22;7177;48.572;7.838;2023-06-14T10:10:12;29.60;66.10
14192;DHT22;7177;48.572;7.838;2023-06-14T10:12:38;30.00;65.20
14192;DHT22;7177;48.572;7.838;2023-06-14T10:15:04;30.40;62.70
14192;DHT22;7177;48.572;7.838;2023-06-14T10:17:39;30.80;61.70
14192;DHT22;7177;48.572;7.838;2023-06-14T10:22:51;30.70;59.10
14192;DHT22;7177;48.572;7.838;2023-06-14T10:25:28;30.60;56.30
14192;DHT22;7177;48.572;7.838;2023-06-14T10:28:14;30.40;57.40
14192;DHT22;7177;48.572;7.838;2023-06-14T10:31:09;30.60;57.00
14192;DHT22;7177;48.572;7.838;2023-06-14T10:33:37;30.30;58.00
14192;DHT22;7177;48.572;7.838;2023-06-14T10:36:31;30.20;57.50
14192;DHT22;7177;48.572;7.838;2023-06-14T10:39:06;30.30;55.60
14192;DHT22;7177;48.572;7.838;2023-06-14T10:41:36;30.20;54.70
14192;DHT22;7177;48.572;7.838;2023-06-14T10:46:49;30.40;53.50
14192;DHT22;7177;48.572;7.838;2023-06-14T10:49:18;30.30;52.90
14192;DHT22;7177;48.572;7.838;2023-06-14T10:51:50;30.40;53.90
14192;DHT22;7177;48.572;7.838;2023-06-14T10:54:17;30.50;54.20
14192;DHT22;7177;48.572;7.838;2023-06-14T10:56:53;30.50;50.80
14192;DHT22;7177;48.572;7.838;2023-06-14T10:59:20;30.30;52.20
14192;DHT22;7177;48.572;7.838;2023-06-14T11:04:51;30.30;51.50
14192;DHT22;7177;48.572;7.838;2023-06-14T11:07:55;30.30;52.80
14192;DHT22;7177;48.572;7.838;2023-06-14T11:10:43;30.30;50.30
14192;DHT22;7177;48.572;7.838;2023-06-14T11:13:11;30.40;51.20
14192;DHT22;7177;48.572;7.838;2023-06-14T11:15:44;30.40;52.00
14192;DHT22;7177;48.572;7.838;2023-06-14T11:18:12;30.50;52.70
14192;DHT22;7177;48.572;7.838;2023-06-14T11:20:39;30.70;50.80
14192;DHT22;7177;48.572;7.838;2023-06-14T11:23:05;30.70;51.30
14192;DHT22;7177;48.572;7.838;2023-06-14T11:25:31;30.50;51.10
14192;DHT22;7177;48.572;7.838;2023-06-14T11:27:57;30.70;50.10
14192;DHT22;7177;48.572;7.838;2023-06-14T11:30:23;30.70;51.10
14192;DHT22;7177;48.572;7.838;2023-06-14T11:32:50;30.80;48.60
14192;DHT22;7177;48.572;7.838;2023-06-14T11:35:16;31.10;51.30
14192;DHT22;7177;48.572;7.838;2023-06-14T11:37:42;31.00;51.30
14192;DHT22;7177;48.572;7.838;2023-06-14T11:40:10;31.20;51.00
14192;DHT22;7177;48.572;7.838;2023-06-14T11:42:38;31.20;49.90
14192;DHT22;7177;48.572;7.838;2023-06-14T11:45:07;31.40;49.30
14192;DHT22;7177;48.572;7.838;2023-06-14T11:47:33;31.50;48.50
14192;DHT22;7177;48.572;7.838;2023-06-14T11:50:00;31.10;46.70
14192;DHT22;7177;48.572;7.838;2023-06-14T11:52:26;31.10;48.80
14192;DHT22;7177;48.572;7.838;2023-06-14T11:54:52;31.20;47.80
14192;DHT22;7177;48.572;7.838;2023-06-14T11:57:18;31.20;45.80
14192;DHT22;7177;48.572;7.838;2023-06-14T11:59:44;31.20;46.20
14192;DHT22;7177;48.572;7.838;2023-06-14T12:02:18;31.10;44.20
14192;DHT22;7177;48.572;7.838;2023-06-14T12:04:44;31.30;46.70
14192;DHT22;7177;48.572;7.838;2023-06-14T12:07:13;31.50;47.40
14192;DHT22;7177;48.572;7.838;2023-06-14T12:10:03;31.50;46.20
14192;DHT22;7177;48.572;7.838;2023-06-14T12:12:35;31.60;47.40
14192;DHT22;7177;48.572;7.838;2023-06-14T12:15:03;31.60;46.20
14192;DHT22;7177;48.572;7.838;2023-06-14T12:17:32;31.60;44.70
14192;DHT22;7177;48.572;7.838;2023-06-14T12:19:57;31.40;44.70
14192;DHT22;7177;48.572;7.838;2023-06-14T12:22:23;31.30;45.00
14192;DHT22;7177;48.572;7.838;2023-06-14T12:24:48;31.10;47.20
14192;DHT22;7177;48.572;7.838;2023-06-14T12:27:14;31.20;47.60
14192;DHT22;7177;48.572;7.838;2023-06-14T12:29:44;31.50;45.70
14192;DHT22;7177;48.572;7.838;2023-06-14T12:32:10;31.80;47.30
14192;DHT22;7177;48.572;7.838;2023-06-14T12:34:36;31.80;46.60
14192;DHT22;7177;48.572;7.838;2023-06-14T12:37:02;31.80;44.70
14192;DHT22;7177;48.572;7.838;2023-06-14T12:39:29;31.60;46.40
14192;DHT22;7177;48.572;7.838;2023-06-14T12:41:57;31.40;46.20
14192;DHT22;7177;48.572;7.838;2023-06-14T12:44:22;31.40;44.00
14192;DHT22;7177;48.572;7.838;2023-06-14T12:46:48;31.20;44.10
14192;DHT22;7177;48.572;7.838;2023-06-14T12:49:13;31.20;45.80
14192;DHT22;7177;48.572;7.838;2023-06-14T12:51:40;31.40;45.00
14192;DHT22;7177;48.572;7.838;2023-06-14T12:54:06;31.30;45.10
14192;DHT22;7177;48.572;7.838;2023-06-14T12:56:31;31.60;46.60
14192;DHT22;7177;48.572;7.838;2023-06-14T12:58:58;32.00;45.60
14192;DHT22;7177;48.572;7.838;2023-06-14T13:01:48;31.70;44.40
14192;DHT22;7177;48.572;7.838;2023-06-14T13:04:15;31.40;45.30
14192;DHT22;7177;48.572;7.838;2023-06-14T13:06:41;31.30;47.20
14192;DHT22;7177;48.572;7.838;2023-06-14T13:09:06;31.30;47.10
14192;DHT22;7177;48.572;7.838;2023-06-14T13:11:33;31.30;46.50
14192;DHT22;7177;48.572;7.838;2023-06-14T13:13:58;31.20;46.20
14192;DHT22;7177;48.572;7.838;2023-06-14T13:16:24;31.50;45.00
14192;DHT22;7177;48.572;7.838;2023-06-14T13:18:50;31.60;44.50
14192;DHT22;7177;48.572;7.838;2023-06-14T13:21:15;31.40;45.40
14192;DHT22;7177;48.572;7.838;2023-06-14T13:23:41;31.40;46.10
14192;DHT22;7177;48.572;7.838;2023-06-14T13:26:06;31.40;45.10
14192;DHT22;7177;48.572;7.838;2023-06-14T13:28:32;31.20;46.70
14192;DHT22;7177;48.572;7.838;2023-06-14T13:31:00;31.20;47.20
14192;DHT22;7177;48.572;7.838;2023-06-14T13:34:02;31.20;45.70
14192;DHT22;7177;48.572;7.838;2023-06-14T13:36:28;31.30;43.30
14192;DHT22;7177;48.572;7.838;2023-06-14T13:38:53;31.40;44.90
14192;DHT22;7177;48.572;7.838;2023-06-14T13:41:20;31.50;44.20
14192;DHT22;7177;48.572;7.838;2023-06-14T13:43:45;31.50;43.80
14192;DHT22;7177;48.572;7.838;2023-06-14T13:46:11;31.70;45.20
14192;DHT22;7177;48.572;7.838;2023-06-14T13:48:36;32.00;47.20
14192;DHT22;7177;48.572;7.838;2023-06-14T13:51:02;31.70;47.00
14192;DHT22;7177;48.572;7.838;2023-06-14T13:53:29;31.60;46.10
14192;DHT22;7177;48.572;7.838;2023-06-14T13:55:55;31.60;46.80
14192;DHT22;7177;48.572;7.838;2023-06-14T13:58:20;31.90;46.00
14192;DHT22;7177;48.572;7.838;2023-06-14T14:00:46;32.00;46.20
14192;DHT22;7177;48.572;7.838;2023-06-14T14:03:11;32.00;46.30
14192;DHT22;7177;48.572;7.838;2023-06-14T14:05:37;31.80;45.30
14192;DHT22;7177;48.572;7.838;2023-06-14T14:08:03;31.40;45.70
14192;DHT22;7177;48.572;7.838;2023-06-14T14:10:29;31.20;44.90
14192;DHT22;7177;48.572;7.838;2023-06-14T14:12:54;31.20;46.30
14192;DHT22;7177;48.572;7.838;2023-06-14T14:15:20;31.00;46.00
14192;DHT22;7177;48.572;7.838;2023-06-14T14:17:46;30.90;46.10
14192;DHT22;7177;48.572;7.838;2023-06-14T14:20:12;30.90;47.30
14192;DHT22;7177;48.572;7.838;2023-06-14T14:22:43;30.90;48.30
14192;DHT22;7177;48.572;7.838;2023-06-14T14:25:09;30.70;46.50
14192;DHT22;7177;48.572;7.838;2023-06-14T14:27:36;30.50;46.40
14192;DHT22;7177;48.572;7.838;2023-06-14T14:30:02;30.60;46.40
14192;DHT22;7177;48.572;7.838;2023-06-14T14:32:28;30.50;47.20
14192;DHT22;7177;48.572;7.838;2023-06-14T14:34:53;30.50;48.60
14192;DHT22;7177;48.572;7.838;2023-06-14T14:37:19;30.50;46.20
14192;DHT22;7177;48.572;7.838;2023-06-14T14:39:45;30.30;47.70
14192;DHT22;7177;48.572;7.838;2023-06-14T14:42:11;30.30;47.30
14192;DHT22;7177;48.572;7.838;2023-06-14T14:44:38;30.50;47.90
14192;DHT22;7177;48.572;7.838;2023-06-14T14:47:03;30.50;47.40
14192;DHT22;7177;48.572;7.838;2023-06-14T14:49:30;30.40;48.40
14192;DHT22;7177;48.572;7.838;2023-06-14T14:51:56;30.50;49.00
14192;DHT22;7177;48.572;7.838;2023-06-14T14:54:22;30.50;48.30
14192;DHT22;7177;48.572;7.838;2023-06-14T14:56:48;30.20;48.00
14192;DHT22;7177;48.572;7.838;2023-06-14T14:59:14;30.00;47.90
14192;DHT22;7177;48.572;7.838;2023-06-14T15:01:39;29.90;47.80
14192;DHT22;7177;48.572;7.838;2023-06-14T15:04:05;30.10;48.70
14192;DHT22;7177;48.572;7.838;2023-06-14T15:06:30;30.10;48.60
14192;DHT22;7177;48.572;7.838;2023-06-14T15:08:57;30.30;49.00
14192;DHT22;7177;48.572;7.838;2023-06-14T15:11:22;30.40;49.60
14192;DHT22;7177;48.572;7.838;2023-06-14T15:13:48;30.30;50.00
14192;DHT22;7177;48.572;7.838;2023-06-14T15:16:14;30.30;47.90
14192;DHT22;7177;48.572;7.838;2023-06-14T15:18:39;30.00;47.40
14192;DHT22;7177;48.572;7.838;2023-06-14T15:21:05;29.80;49.30
14192;DHT22;7177;48.572;7.838;2023-06-14T15:23:30;29.90;49.70
14192;DHT22;7177;48.572;7.838;2023-06-14T15:25:56;30.00;49.80
14192;DHT22;7177;48.572;7.838;2023-06-14T15:28:21;29.90;48.50
14192;DHT22;7177;48.572;7.838;2023-06-14T15:30:49;29.80;47.70
14192;DHT22;7177;48.572;7.838;2023-06-14T15:33:15;29.70;49.20
14192;DHT22;7177;48.572;7.838;2023-06-14T15:35:40;29.70;49.20
14192;DHT22;7177;48.572;7.838;2023-06-14T15:38:06;29.70;49.70
14192;DHT22;7177;48.572;7.838;2023-06-14T15:40:31;29.50;49.50
14192;DHT22;7177;48.572;7.838;2023-06-14T15:42:57;29.50;49.20
14192;DHT22;7177;48.572;7.838;2023-06-14T15:45:22;29.60;49.30
14192;DHT22;7177;48.572;7.838;2023-06-14T15:47:48;29.70;48.40
14192;DHT22;7177;48.572;7.838;2023-06-14T15:50:13;29.80;48.70
14192;DHT22;7177;48.572;7.838;2023-06-14T15:52:39;30.10;49.60
14192;DHT22;7177;48.572;7.838;2023-06-14T15:55:05;29.90;48.20
14192;DHT22;7177;48.572;7.838;2023-06-14T15:57:30;29.60;48.80